createdAt,value
2022-11-06T00:07:12.075Z,23.75
2022-11-06T00:17:17.341Z,23.71
2022-11-06T00:27:22.332Z,23.69
2022-11-06T00:37:28.148Z,23.76
2022-11-06T00:47:33.086Z,23.74
2022-11-06T00:57:38.376Z,23.72
2022-11-06T01:07:43.666Z,23.72
2022-11-06T01:17:48.882Z,23.68
2022-11-06T01:27:54.347Z,23.70
2022-11-06T01:37:58.996Z,23.70
2022-11-06T01:48:04.032Z,23.65
2022-11-06T01:58:09.156Z,23.70
2022-11-06T02:08:15.294Z,23.75
2022-11-06T02:18:20.694Z,23.72
2022-11-06T02:28:25.779Z,23.77
2022-11-06T02:38:30.887Z,23.76
2022-11-06T02:48:36.060Z,23.65
2022-11-06T02:58:46.138Z,23.71
2022-11-06T03:08:51.313Z,23.67
2022-11-06T03:18:56.668Z,23.66
2022-11-06T03:29:01.997Z,23.66
2022-11-06T03:39:06.951Z,23.69
2022-11-06T03:49:11.975Z,23.63
2022-11-06T03:59:17.017Z,23.68
2022-11-06T04:09:22.478Z,23.65
2022-11-06T04:19:27.891Z,23.64
2022-11-06T04:29:33.417Z,23.66
2022-11-06T04:39:39.076Z,23.66
2022-11-06T04:49:44.200Z,23.67
2022-11-06T04:59:49.756Z,23.65
2022-11-06T05:09:55.306Z,23.65
2022-11-06T05:20:00.458Z,23.67
2022-11-06T05:30:05.599Z,23.61
2022-11-06T05:40:10.811Z,23.61
2022-11-06T05:50:15.989Z,23.56
2022-11-06T06:00:21.024Z,23.61
2022-11-06T06:10:26.619Z,23.60
2022-11-06T06:20:31.979Z,23.62
2022-11-06T06:30:37.026Z,23.60
2022-11-06T06:40:42.380Z,23.62
2022-11-06T06:50:47.877Z,23.60
2022-11-06T07:00:53.278Z,23.61
2022-11-06T07:10:58.565Z,23.58
2022-11-06T07:21:03.815Z,23.57
2022-11-06T07:31:08.871Z,23.59
2022-11-06T07:41:14.053Z,23.58
2022-11-06T07:51:19.236Z,23.57
2022-11-06T08:01:24.510Z,23.50
2022-11-06T08:11:30.136Z,23.66
2022-11-06T08:21:35.460Z,23.69
2022-11-06T08:31:40.338Z,23.75
2022-11-06T08:41:45.736Z,23.78
2022-11-06T08:51:50.890Z,23.77
2022-11-06T09:01:56.242Z,23.81
2022-11-06T09:12:01.953Z,23.84
2022-11-06T09:22:07.249Z,23.85
2022-11-06T09:32:12.184Z,23.86
2022-11-06T09:42:17.777Z,23.92
2022-11-06T09:52:23.282Z,23.95
2022-11-06T10:02:28.553Z,23.96
2022-11-06T10:12:33.965Z,23.97
2022-11-06T10:22:39.440Z,24.01
2022-11-06T10:32:44.609Z,24.00
2022-11-06T10:42:50.286Z,23.94
2022-11-06T10:52:55.820Z,23.99
2022-11-06T11:03:01.213Z,24.09
2022-11-06T11:13:08.601Z,24.11
2022-11-06T11:23:14.774Z,24.16
2022-11-06T11:33:20.179Z,24.05
2022-11-06T11:43:25.327Z,23.92
2022-11-06T11:53:30.539Z,23.86
2022-11-06T12:03:35.681Z,23.82
2022-11-06T12:13:41.038Z,23.75
2022-11-06T12:23:46.258Z,23.70
2022-11-06T12:34:08.437Z,23.63
2022-11-06T12:44:01.922Z,23.61
2022-11-06T12:54:08.642Z,23.60
2022-11-06T13:04:14.009Z,23.57
2022-11-06T13:14:19.161Z,23.53
2022-11-06T13:24:24.379Z,23.51
2022-11-06T13:34:29.911Z,23.48
2022-11-06T13:44:35.291Z,23.46
2022-11-06T13:54:40.878Z,23.43
2022-11-06T14:04:50.888Z,23.41
2022-11-06T14:14:56.353Z,23.40
2022-11-06T14:25:02.570Z,23.39
2022-11-06T14:35:08.330Z,23.38
2022-11-06T14:45:13.687Z,23.35
2022-11-06T14:55:19.278Z,23.32
2022-11-06T15:05:24.629Z,23.32
2022-11-06T15:15:29.842Z,23.30
2022-11-06T15:25:35.008Z,23.28
2022-11-06T15:35:40.464Z,23.27
2022-11-06T15:45:45.604Z,23.27
2022-11-06T15:55:50.992Z,23.27
2022-11-06T16:05:56.174Z,23.25
2022-11-06T16:16:01.479Z,23.24
2022-11-06T16:26:07.101Z,23.23
2022-11-06T16:36:12.310Z,23.22
2022-11-06T16:46:17.766Z,23.21
2022-11-06T16:56:23.128Z,23.20
2022-11-06T17:06:28.680Z,23.18
2022-11-06T17:16:34.065Z,23.19
2022-11-06T17:26:39.672Z,23.18
2022-11-06T17:36:45.012Z,23.15
2022-11-06T17:46:49.983Z,23.27
2022-11-06T17:56:55.516Z,23.29
2022-11-06T18:07:00.801Z,23.34
2022-11-06T18:17:06.112Z,23.39
2022-11-06T18:27:11.326Z,23.42
2022-11-06T18:37:16.595Z,23.42
2022-11-06T18:47:21.785Z,23.36
2022-11-06T18:57:27.232Z,23.32
2022-11-06T19:07:32.293Z,23.32
2022-11-06T19:17:37.381Z,23.32
2022-11-06T19:27:42.720Z,23.31
2022-11-06T19:37:47.845Z,23.30
2022-11-06T19:47:53.118Z,23.28
2022-11-06T19:57:58.373Z,23.31
2022-11-06T20:08:03.471Z,23.31
2022-11-06T20:18:08.590Z,23.31
2022-11-06T20:28:15.479Z,23.30
2022-11-06T20:38:20.661Z,23.29
2022-11-06T20:48:25.940Z,23.28
2022-11-06T20:58:31.171Z,23.25
2022-11-06T21:08:36.283Z,23.25
2022-11-06T21:18:40.802Z,23.22
2022-11-06T21:28:45.717Z,23.23
2022-11-06T21:38:50.970Z,23.24
2022-11-06T21:48:56.955Z,23.25
2022-11-06T21:59:02.627Z,23.23
2022-11-06T22:09:08.243Z,23.24
2022-11-06T22:19:13.865Z,23.25
2022-11-06T22:29:19.520Z,23.25
2022-11-06T22:39:25.091Z,23.26
2022-11-06T22:49:30.100Z,23.26
2022-11-06T22:59:35.650Z,23.24
2022-11-06T23:09:41.236Z,23.24
2022-11-06T23:19:46.864Z,23.23
2022-11-06T23:29:52.205Z,23.25
2022-11-06T23:39:57.327Z,23.24
2022-11-06T23:50:02.689Z,23.36
